Time,TemperatureF,DewpointF,PressureIn,WindDirection,WindDirectionDegrees,WindSpeedMPH,WindSpeedGustMPH,Humidity,HourlyPrecipIn,Conditions,Clouds,dailyrainin,SoftwareType,DateUTC
2014-08-22 00:09:00,67.8,67.2,29.98,SE,135,0.0,-999.0,98,-99.99,,,0.00,Acu-Link.com,2014-08-22 04:09:00,
2014-08-22 00:25:00,67.5,66.9,29.97,ENE,67,0.0,-999.0,98,-99.99,,,0.00,Acu-Link.com,2014-08-22 04:25:00,
2014-08-22 00:40:00,67.5,66.9,29.98,East,90,0.0,-999.0,98,-99.99,,,0.00,Acu-Link.com,2014-08-22 04:40:00,
2014-08-22 00:55:00,67.3,66.7,29.97,SE,135,0.0,-999.0,98,-99.99,,,0.00,Acu-Link.com,2014-08-22 04:55:00,
2014-08-22 01:10:00,67.3,66.7,29.97,SE,135,0.0,-999.0,98,-99.99,,,0.00,Acu-Link.com,2014-08-22 05:10:00,
2014-08-22 01:25:00,67.3,66.7,29.97,SSE,157,2.2,-999.0,98,-99.99,,,0.00,Acu-Link.com,2014-08-22 05:25:00,
2014-08-22 01:40:00,67.1,66.5,29.95,SE,135,2.7,-999.0,98,-99.99,,,0.00,Acu-Link.com,2014-08-22 05:40:00,
2014-08-22 01:55:00,67.1,66.5,29.96,ESE,112,2.7,-999.0,98,-99.99,,,0.00,Acu-Link.com,2014-08-22 05:55:00,
2014-08-22 02:10:00,66.9,66.3,29.96,ESE,112,3.2,-999.0,98,-99.99,,,0.00,Acu-Link.com,2014-08-22 06:10:00,
2014-08-22 02:25:00,66.6,66.0,29.96,SE,135,0.0,-999.0,98,-99.99,,,0.00,Acu-Link.com,2014-08-22 06:25:00,
2014-08-22 02:41:00,66.6,66.0,29.96,SE,135,0.0,-999.0,98,-99.99,,,0.00,Acu-Link.com,2014-08-22 06:41:00,
2014-08-22 02:56:00,66.4,65.8,29.96,SE,135,3.2,-999.0,98,-99.99,,,0.00,Acu-Link.com,2014-08-22 06:56:00,
2014-08-22 03:11:00,66.4,65.8,29.96,SE,135,2.7,-999.0,98,-99.99,,,0.00,Acu-Link.com,2014-08-22 07:11:00,
2014-08-22 03:26:00,66.4,65.8,29.96,ESE,112,4.7,-999.0,98,-99.99,,,0.00,Acu-Link.com,2014-08-22 07:26:00,
2014-08-22 03:41:00,66.2,65.6,29.96,ESE,112,3.2,-999.0,98,-99.99,,,0.00,Acu-Link.com,2014-08-22 07:41:00,
2014-08-22 03:56:00,65.7,65.1,29.96,ESE,112,3.7,-999.0,98,-99.99,,,0.00,Acu-Link.com,2014-08-22 07:56:00,
2014-08-22 04:11:00,65.3,64.7,29.96,SSE,157,4.2,-999.0,98,-99.99,,,0.00,Acu-Link.com,2014-08-22 08:11:00,
2014-08-22 04:26:00,65.3,64.7,29.96,SE,135,6.3,-999.0,98,-99.99,,,0.00,Acu-Link.com,2014-08-22 08:26:00,
2014-08-22 04:41:00,64.8,64.2,29.96,ESE,112,3.2,-999.0,98,-99.99,,,0.00,Acu-Link.com,2014-08-22 08:41:00,
2014-08-22 04:57:00,64.4,63.8,29.97,SE,135,3.2,-999.0,98,-99.99,,,0.00,Acu-Link.com,2014-08-22 08:57:00,
2014-08-22 05:12:00,63.7,63.1,29.96,ESE,112,3.2,-999.0,98,-99.99,,,0.00,Acu-Link.com,2014-08-22 09:12:00,
2014-08-22 05:27:00,63.3,62.7,29.96,SSE,157,2.7,-999.0,98,-99.99,,,0.00,Acu-Link.com,2014-08-22 09:27:00,
2014-08-22 05:42:00,63.3,62.7,29.96,SSE,157,4.2,-999.0,98,-99.99,,,0.00,Acu-Link.com,2014-08-22 09:42:00,
2014-08-22 05:57:00,63.3,62.7,29.97,SE,135,1.7,-999.0,98,-99.99,,,0.00,Acu-Link.com,2014-08-22 09:57:00,
2014-08-22 06:12:00,63.1,62.5,29.97,ESE,112,2.7,-999.0,98,-99.99,,,0.00,Acu-Link.com,2014-08-22 10:12:00,
2014-08-22 06:27:00,63.1,62.5,29.97,ESE,112,2.7,-999.0,98,-99.99,,,0.00,Acu-Link.com,2014-08-22 10:27:00,
2014-08-22 06:42:00,63.1,62.5,29.97,ESE,112,2.7,-999.0,98,-99.99,,,0.00,Acu-Link.com,2014-08-22 10:42:00,
2014-08-22 06:57:00,63.1,62.5,29.96,ESE,112,3.7,-999.0,98,-99.99,,,0.00,Acu-Link.com,2014-08-22 10:57:00,
2014-08-22 07:13:00,63.3,62.7,29.97,ESE,112,3.7,-999.0,98,-99.99,,,0.00,Acu-Link.com,2014-08-22 11:13:00,
2014-08-22 07:28:00,63.5,62.9,29.97,ESE,112,2.2,-999.0,98,-99.99,,,0.00,Acu-Link.com,2014-08-22 11:28:00,
2014-08-22 07:43:00,63.5,62.9,29.97,SE,135,3.2,-999.0,98,-99.99,,,0.00,Acu-Link.com,2014-08-22 11:43:00,
2014-08-22 07:58:00,64.0,63.4,29.97,SE,135,3.7,-999.0,98,-99.99,,,0.00,Acu-Link.com,2014-08-22 11:58:00,
2014-08-22 08:13:00,64.6,64.0,29.97,SE,135,4.7,-999.0,98,-99.99,,,0.00,Acu-Link.com,2014-08-22 12:13:00,
2014-08-22 08:28:00,65.1,64.5,29.97,SSE,157,6.3,-999.0,98,-99.99,,,0.00,Acu-Link.com,2014-08-22 12:28:00,
2014-08-22 08:43:00,65.5,64.9,29.96,ESE,112,4.2,-999.0,98,-99.99,,,0.00,Acu-Link.com,2014-08-22 12:43:00,
2014-08-22 08:58:00,65.7,65.1,29.97,ESE,112,6.3,-999.0,98,-99.99,,,0.00,Acu-Link.com,2014-08-22 12:58:00,
2014-08-22 09:13:00,66.6,66.0,29.97,ESE,112,6.3,-999.0,98,-99.99,,,0.00,Acu-Link.com,2014-08-22 13:13:00,
2014-08-22 09:29:00,66.9,66.3,29.98,SSE,157,2.7,-999.0,98,-99.99,,,0.00,Acu-Link.com,2014-08-22 13:29:00,
2014-08-22 09:44:00,66.2,65.6,29.98,SE,135,5.3,-999.0,98,-99.99,,,0.00,Acu-Link.com,2014-08-22 13:44:00,
2014-08-22 09:59:00,66.6,66.0,29.99,East,90,3.7,-999.0,98,-99.99,,,0.00,Acu-Link.com,2014-08-22 13:59:00,
2014-08-22 10:14:00,66.7,66.1,29.99,ESE,112,2.7,-999.0,98,-99.99,,,0.00,Acu-Link.com,2014-08-22 14:14:00,
2014-08-22 10:29:00,67.1,66.5,30.00,SE,135,2.2,-999.0,98,-99.99,,,0.00,Acu-Link.com,2014-08-22 14:29:00,
2014-08-22 10:44:00,66.6,66.0,30.00,ESE,112,0.0,-999.0,98,-99.99,,,0.00,Acu-Link.com,2014-08-22 14:44:00,
2014-08-22 11:00:00,66.9,66.3,30.00,ESE,112,2.7,-999.0,98,-99.99,,,0.00,Acu-Link.com,2014-08-22 15:00:00,
2014-08-22 11:15:00,66.9,66.3,30.00,ESE,112,3.2,-999.0,98,-99.99,,,0.00,Acu-Link.com,2014-08-22 15:15:00,
2014-08-22 11:30:00,67.3,66.7,29.99,SW,225,3.7,-999.0,98,-99.99,,,0.00,Acu-Link.com,2014-08-22 15:30:00,
2014-08-22 11:45:00,67.5,66.9,29.99,SE,135,4.7,-999.0,98,-99.99,,,0.00,Acu-Link.com,2014-08-22 15:45:00,
2014-08-22 12:00:00,68.0,67.4,29.98,ESE,112,2.7,-999.0,98,-99.99,,,0.00,Acu-Link.com,2014-08-22 16:00:00,
2014-08-22 12:15:00,68.0,67.4,29.99,South,180,5.8,-999.0,98,-99.99,,,0.00,Acu-Link.com,2014-08-22 16:15:00,
2014-08-22 12:30:00,68.9,68.3,29.99,ESE,112,2.7,-999.0,98,-99.99,,,0.00,Acu-Link.com,2014-08-22 16:30:00,
2014-08-22 12:45:00,68.5,67.9,29.99,ESE,112,4.7,-999.0,98,-99.99,,,0.00,Acu-Link.com,2014-08-22 16:45:00,
2014-08-22 13:00:00,68.9,68.3,29.99,East,90,1.7,-999.0,98,-99.99,,,0.00,Acu-Link.com,2014-08-22 17:00:00,
2014-08-22 13:16:00,68.9,68.3,29.99,ESE,112,5.3,-999.0,98,-99.99,,,0.00,Acu-Link.com,2014-08-22 17:16:00,